Time;durP1;ratioP1;P1;durP2;ratioP2;P2;SDS_P1;SDS_P2;PMS_P1;PMS_P2;Temp;Humidity;BMP_temperature;BMP_pressure;BME280_temperature;BME280_humidity;BME280_pressure;Samples;Min_cycle;Max_cycle;Signal;HPM_P1;HPM_P2
2022/09/26 00:01:16;;;;;;;11.07;6.15;;;;;;;;;;5049992;28;20105;-73
2022/09/26 00:03:43;;;;;;;10.85;7.40;;;;;;;;;;5050539;28;20036;-73
2022/09/26 00:06:09;;;;;;;11.00;7.70;;;;;;;;;;5050424;28;20084;-72
2022/09/26 00:08:36;;;;;;;8.95;5.72;;;;;;;;;;5050334;28;20025;-73
2022/09/26 00:11:04;;;;;;;10.32;6.95;;;;;;;;;;5049349;28;20056;-72
2022/09/26 00:13:31;;;;;;;8.60;6.00;;;;;;;;;;5049921;28;20024;-72
2022/09/26 00:15:58;;;;;;;10.45;6.13;;;;;;;;;;5048784;28;20425;-73
2022/09/26 00:18:24;;;;;;;9.02;6.70;;;;;;;;;;5048805;28;20606;-73
2022/09/26 00:20:50;;;;;;;10.85;6.28;;;;;;;;;;5049366;28;20439;-72
2022/09/26 00:23:16;;;;;;;11.30;6.32;;;;;;;;;;5048643;28;20352;-73
2022/09/26 00:25:46;;;;;;;10.77;6.57;;;;;;;;;;5048938;28;20530;-72
2022/09/26 00:28:12;;;;;;;12.57;6.10;;;;;;;;;;5049051;28;20096;-72
2022/09/26 00:30:38;;;;;;;9.88;6.10;;;;;;;;;;5048625;28;20500;-73
2022/09/26 00:33:04;;;;;;;11.90;5.85;;;;;;;;;;5049317;28;20039;-74
2022/09/26 00:35:30;;;;;;;10.05;5.82;;;;;;;;;;5065450;28;20478;-74
2022/09/26 00:37:56;;;;;;;10.27;5.90;;;;;;;;;;5067567;28;20596;-75
2022/09/26 00:40:26;;;;;;;10.32;5.43;;;;;;;;;;5069125;28;20025;-74
2022/09/26 00:42:53;;;;;;;8.27;6.07;;;;;;;;;;5069069;28;20071;-73
2022/09/26 00:45:19;;;;;;;9.95;6.05;;;;;;;;;;5069069;28;20032;-73
2022/09/26 00:47:58;;;;;;;8.40;4.95;;;;;;;;;;5069375;28;20294;-73
2022/09/26 00:50:32;;;;;;;7.57;5.28;;;;;;;;;;5068933;28;20075;-73
2022/09/26 00:53:09;;;;;;;9.40;5.20;;;;;;;;;;5068929;28;20067;-73
2022/09/26 00:55:38;;;;;;;11.05;6.10;;;;;;;;;;5071068;28;20108;-73
2022/09/26 00:58:06;;;;;;;11.55;5.70;;;;;;;;;;5069958;28;20020;-73
2022/09/26 01:00:32;;;;;;;7.50;3.85;;;;;;;;;;5066701;28;20020;-73
2022/09/26 01:02:58;;;;;;;11.52;5.75;;;;;;;;;;5049007;28;20143;-73
2022/09/26 01:05:24;;;;;;;7.70;5.72;;;;;;;;;;5048766;28;20283;-74
2022/09/26 01:07:52;;;;;;;7.15;4.78;;;;;;;;;;5048770;28;20038;-74
2022/09/26 01:10:23;;;;;;;8.20;5.28;;;;;;;;;;5049162;28;20033;-73
2022/09/26 01:12:49;;;;;;;12.80;5.93;;;;;;;;;;5048226;28;20028;-72
2022/09/26 01:15:15;;;;;;;8.35;5.28;;;;;;;;;;5049163;28;20037;-73
2022/09/26 01:17:42;;;;;;;11.38;5.90;;;;;;;;;;5047960;28;20057;-73
2022/09/26 01:20:11;;;;;;;9.10;4.75;;;;;;;;;;5050112;28;20028;-72
2022/09/26 01:22:56;;;;;;;14.60;6.32;;;;;;;;;;5049159;28;20052;-72
2022/09/26 01:25:22;;;;;;;7.95;5.47;;;;;;;;;;5049364;28;20025;-72
2022/09/26 01:28:07;;;;;;;7.38;4.13;;;;;;;;;;5049486;28;20032;-73
2022/09/26 01:30:53;;;;;;;8.05;5.70;;;;;;;;;;5050366;28;20029;-73
2022/09/26 01:33:36;;;;;;;9.43;5.90;;;;;;;;;;5050859;28;20033;-74
2022/09/26 01:36:05;;;;;;;6.95;4.13;;;;;;;;;;5053271;28;20021;-73
2022/09/26 01:38:35;;;;;;;8.25;4.97;;;;;;;;;;5053667;28;20033;-73
2022/09/26 01:41:40;;;;;;;9.65;5.20;;;;;;;;;;5052945;28;20087;-73
2022/09/26 01:44:06;;;;;;;8.30;5.78;;;;;;;;;;5070451;28;20029;-73
2022/09/26 01:46:31;;;;;;;11.52;6.22;;;;;;;;;;5070697;28;20036;-73
2022/09/26 01:49:06;;;;;;;9.73;6.07;;;;;;;;;;5063494;28;20049;-73
2022/09/26 01:51:36;;;;;;;10.77;5.97;;;;;;;;;;5055629;28;20037;-73
2022/09/26 01:54:06;;;;;;;13.30;6.03;;;;;;;;;;5055474;28;20051;-74
2022/09/26 01:56:32;;;;;;;;;;;;;;;;;;5053429;28;20021;-74
2022/09/26 01:59:16;;;;;;;13.35;6.15;;;;;;;;;;5053389;28;19909;-73
2022/09/26 02:01:44;;;;;;;8.63;5.15;;;;;;;;;;5051231;28;20473;-73
2022/09/26 02:04:16;;;;;;;9.65;6.05;;;;;;;;;;5053570;28;20040;-73
2022/09/26 02:06:54;;;;;;;11.30;6.70;;;;;;;;;;5053339;28;20031;-73
2022/09/26 02:09:29;;;;;;;15.27;7.60;;;;;;;;;;5052438;28;20117;-73
2022/09/26 02:11:59;;;;;;;14.65;7.25;;;;;;;;;;5052185;28;20037;-73
2022/09/26 02:14:25;;;;;;;;;;;;;;;;;;5053307;28;20144;-73
2022/09/26 02:16:53;;;;;;;9.70;5.88;;;;;;;;;;5052028;28;20347;-73
2022/09/26 02:19:28;;;;;;;11.75;7.15;;;;;;;;;;5051699;28;20125;-72
2022/09/26 02:21:54;;;;;;;9.32;5.45;;;;;;;;;;5051150;28;20045;-73
2022/09/26 02:24:21;;;;;;;7.88;5.93;;;;;;;;;;5051224;28;20025;-74
2022/09/26 02:26:48;;;;;;;9.52;4.88;;;;;;;;;;5050608;28;20647;-74
2022/09/26 02:29:15;;;;;;;9.82;5.95;;;;;;;;;;5051288;28;20029;-73
2022/09/26 02:31:58;;;;;;;11.60;6.22;;;;;;;;;;5051083;28;20029;-74
2022/09/26 02:34:24;;;;;;;9.40;5.03;;;;;;;;;;5058236;28;20036;-74
2022/09/26 02:36:51;;;;;;;12.45;6.55;;;;;;;;;;5070875;28;20379;-73
2022/09/26 02:39:17;;;;;;;8.13;5.10;;;;;;;;;;5070658;28;20141;-74
2022/09/26 02:42:01;;;;;;;10.13;5.03;;;;;;;;;;5070115;28;20029;-74
2022/09/26 02:44:40;;;;;;;9.70;5.75;;;;;;;;;;5056124;28;20025;-73
2022/09/26 02:47:24;;;;;;;13.93;6.90;;;;;;;;;;5050406;28;20105;-73
2022/09/26 02:49:50;;;;;;;9.32;5.22;;;;;;;;;;5050342;28;20051;-73
2022/09/26 02:52:34;;;;;;;10.13;5.57;;;;;;;;;;5050475;28;20037;-73
2022/09/26 02:55:11;;;;;;;10.88;5.40;;;;;;;;;;5051766;28;20032;-73
2022/09/26 02:57:40;;;;;;;9.00;4.18;;;;;;;;;;5050521;28;20087;-73
2022/09/26 03:00:08;;;;;;;9.57;4.72;;;;;;;;;;5051357;28;20017;-73
2022/09/26 03:02:40;;;;;;;10.60;5.25;;;;;;;;;;5051575;28;20032;-74
2022/09/26 03:05:10;;;;;;;9.88;5.13;;;;;;;;;;5052505;28;20028;-74
2022/09/26 03:07:39;;;;;;;9.38;4.13;;;;;;;;;;5056616;28;20049;-75
2022/09/26 03:10:06;;;;;;;9.73;4.22;;;;;;;;;;5075576;28;20020;-74
2022/09/26 03:12:33;;;;;;;9.13;4.80;;;;;;;;;;5075113;28;20013;-74
2022/09/26 03:15:02;;;;;;;7.50;4.13;;;;;;;;;;5068621;28;20672;-73
2022/09/26 03:17:30;;;;;;;9.45;3.83;;;;;;;;;;5051606;28;20037;-74
2022/09/26 03:20:01;;;;;;;9.88;4.57;;;;;;;;;;5051869;28;20028;-73
2022/09/26 03:22:27;;;;;;;9.82;4.00;;;;;;;;;;5052256;28;20059;-72
2022/09/26 03:24:53;;;;;;;10.15;4.78;;;;;;;;;;5050918;28;20021;-74
2022/09/26 03:27:19;;;;;;;9.60;4.90;;;;;;;;;;5051704;28;20068;-73
2022/09/26 03:29:45;;;;;;;10.65;4.35;;;;;;;;;;5051387;28;20515;-73
2022/09/26 03:32:11;;;;;;;12.05;4.55;;;;;;;;;;5051141;28;20037;-74
2022/09/26 03:34:38;;;;;;;13.13;5.50;;;;;;;;;;5051360;28;20052;-73
2022/09/26 03:37:05;;;;;;;7.95;3.97;;;;;;;;;;5067576;28;20109;-74
2022/09/26 03:39:31;;;;;;;9.55;4.80;;;;;;;;;;5071678;28;20028;-73
2022/09/26 03:41:57;;;;;;;9.02;4.03;;;;;;;;;;5071133;28;20047;-74
2022/09/26 03:44:24;;;;;;;9.63;4.90;;;;;;;;;;5071494;28;20074;-75
2022/09/26 03:46:50;;;;;;;7.88;4.47;;;;;;;;;;5070462;28;20033;-73
2022/09/26 03:49:16;;;;;;;8.65;4.32;;;;;;;;;;5070675;28;20106;-74
2022/09/26 03:51:43;;;;;;;6.13;3.90;;;;;;;;;;5070762;28;20075;-73
2022/09/26 03:54:11;;;;;;;7.03;4.57;;;;;;;;;;5072600;28;20101;-73
2022/09/26 03:56:37;;;;;;;10.43;5.60;;;;;;;;;;5072783;28;20028;-74
2022/09/26 03:59:03;;;;;;;7.32;4.63;;;;;;;;;;5072166;28;20493;-74
2022/09/26 04:01:29;;;;;;;7.57;4.13;;;;;;;;;;5073005;28;20039;-73
2022/09/26 04:03:59;;;;;;;8.65;3.75;;;;;;;;;;5074140;28;20027;-74
2022/09/26 04:06:25;;;;;;;8.68;4.25;;;;;;;;;;5071349;28;20090;-73
2022/09/26 04:08:52;;;;;;;8.20;4.18;;;;;;;;;;5070523;28;20029;-74
2022/09/26 04:11:21;;;;;;;9.10;4.40;;;;;;;;;;5069990;28;20040;-74
2022/09/26 04:13:48;;;;;;;9.15;4.05;;;;;;;;;;5069567;28;20043;-75
2022/09/26 04:16:14;;;;;;;9.25;4.05;;;;;;;;;;5069613;28;20040;-73
2022/09/26 04:18:40;;;;;;;7.95;4.30;;;;;;;;;;5069735;28;20037;-74
2022/09/26 04:21:07;;;;;;;9.98;4.00;;;;;;;;;;5069551;28;20028;-76
2022/09/26 04:23:34;;;;;;;6.68;3.35;;;;;;;;;;5070505;28;20028;-75
2022/09/26 04:26:04;;;;;;;10.18;4.05;;;;;;;;;;5069660;28;20036;-75
2022/09/26 04:28:31;;;;;;;9.80;4.18;;;;;;;;;;5069273;28;20028;-74
2022/09/26 04:30:57;;;;;;;8.77;3.50;;;;;;;;;;5069893;28;20040;-73
2022/09/26 04:33:23;;;;;;;9.27;3.85;;;;;;;;;;5071355;28;20513;-73
2022/09/26 04:35:49;;;;;;;8.13;3.53;;;;;;;;;;5070700;28;20056;-73
2022/09/26 04:38:17;;;;;;;7.70;3.60;;;;;;;;;;5069931;28;20103;-73
2022/09/26 04:40:43;;;;;;;9.85;4.03;;;;;;;;;;5069552;28;20024;-73
2022/09/26 04:43:09;;;;;;;6.65;3.10;;;;;;;;;;5070301;28;20143;-73
2022/09/26 04:45:35;;;;;;;7.00;3.30;;;;;;;;;;5070855;28;20403;-74
2022/09/26 04:48:01;;;;;;;7.63;3.03;;;;;;;;;;5069940;28;20505;-74
2022/09/26 04:50:27;;;;;;;15.25;3.70;;;;;;;;;;5051256;28;20040;-74
2022/09/26 04:52:53;;;;;;;7.60;3.10;;;;;;;;;;5057905;28;20123;-74
2022/09/26 04:55:20;;;;;;;6.72;3.00;;;;;;;;;;5051102;28;20032;-73
2022/09/26 04:57:48;;;;;;;6.55;2.83;;;;;;;;;;5057204;28;20024;-74
2022/09/26 05:00:17;;;;;;;6.63;3.03;;;;;;;;;;5057495;28;20032;-74
2022/09/26 05:02:44;;;;;;;8.70;2.95;;;;;;;;;;5063677;28;20031;-73
2022/09/26 05:05:11;;;;;;;11.68;3.83;;;;;;;;;;5060232;28;20027;-74
2022/09/26 05:07:43;;;;;;;10.35;3.83;;;;;;;;;;5069717;28;20029;-73
2022/09/26 05:10:10;;;;;;;7.85;3.03;;;;;;;;;;5069593;28;20075;-74
2022/09/26 05:12:39;;;;;;;5.75;2.80;;;;;;;;;;5061911;28;20458;-74
2022/09/26 05:15:09;;;;;;;11.77;4.03;;;;;;;;;;5056705;28;20096;-74
2022/09/26 05:17:37;;;;;;;7.22;2.55;;;;;;;;;;5063193;28;20032;-74
2022/09/26 05:20:08;;;;;;;6.18;2.30;;;;;;;;;;5068972;28;20024;-73
2022/09/26 05:22:35;;;;;;;5.68;2.45;;;;;;;;;;5056814;28;20060;-74
2022/09/26 05:27:46;;;;;;;9.30;4.28;;;;;;;;;;5049779;28;20036;-73
2022/09/26 05:30:12;;;;;;;9.77;3.03;;;;;;;;;;5054245;28;20029;-73
2022/09/26 05:32:38;;;;;;;10.00;3.55;;;;;;;;;;5064036;28;20041;-74
2022/09/26 05:35:05;;;;;;;6.93;3.00;;;;;;;;;;5063839;28;20075;-74
2022/09/26 05:37:32;;;;;;;6.63;3.33;;;;;;;;;;5068413;28;20035;-73
2022/09/26 05:42:43;;;;;;;6.88;3.45;;;;;;;;;;5068328;28;20036;-75
2022/09/26 05:45:09;;;;;;;13.90;3.20;;;;;;;;;;5067766;28;20028;-74
2022/09/26 05:47:36;;;;;;;7.95;2.50;;;;;;;;;;5055107;28;20380;-72
2022/09/26 05:50:08;;;;;;;4.57;1.65;;;;;;;;;;5048581;28;20029;-72
2022/09/26 05:52:35;;;;;;;5.95;2.15;;;;;;;;;;5048893;28;20090;-74
2022/09/26 05:55:01;;;;;;;3.85;2.13;;;;;;;;;;5047391;28;20059;-71
2022/09/26 05:57:27;;;;;;;5.70;2.03;;;;;;;;;;5046245;28;20460;-72
2022/09/26 05:59:53;;;;;;;3.60;1.90;;;;;;;;;;5061422;28;20097;-72
2022/09/26 06:02:22;;;;;;;4.45;2.00;;;;;;;;;;5058038;28;20553;-72
2022/09/26 06:04:48;;;;;;;7.65;1.90;;;;;;;;;;5061548;28;20025;-72
2022/09/26 06:07:14;;;;;;;6.00;2.35;;;;;;;;;;5052150;28;20527;-73
2022/09/26 06:09:40;;;;;;;4.47;2.05;;;;;;;;;;5052888;28;20165;-73
2022/09/26 06:12:07;;;;;;;5.38;1.85;;;;;;;;;;5052294;28;20045;-73
2022/09/26 06:14:33;;;;;;;4.53;2.20;;;;;;;;;;5051066;28;20029;-73
2022/09/26 06:16:59;;;;;;;5.22;2.20;;;;;;;;;;5049206;28;20025;-72
2022/09/26 06:19:25;;;;;;;3.50;1.55;;;;;;;;;;5059009;28;20546;-72
2022/09/26 06:21:50;;;;;;;4.60;2.08;;;;;;;;;;5069847;28;20045;-72
2022/09/26 06:24:18;;;;;;;3.60;1.75;;;;;;;;;;5069318;28;20039;-71
2022/09/26 06:26:44;;;;;;;4.72;2.33;;;;;;;;;;5069615;28;20718;-72
2022/09/26 06:29:10;;;;;;;5.78;1.85;;;;;;;;;;5065052;28;20032;-72
2022/09/26 06:31:36;;;;;;;4.57;2.20;;;;;;;;;;5070870;28;20757;-71
2022/09/26 06:34:03;;;;;;;4.18;1.67;;;;;;;;;;5066955;28;20033;-72
2022/09/26 06:36:30;;;;;;;4.85;1.45;;;;;;;;;;5050929;28;20033;-73
2022/09/26 06:38:56;;;;;;;6.03;1.60;;;;;;;;;;5057581;28;20036;-72
2022/09/26 06:41:25;;;;;;;4.70;1.70;;;;;;;;;;5068753;28;20044;-73
2022/09/26 06:43:51;;;;;;;4.55;1.80;;;;;;;;;;5062156;28;20079;-72
2022/09/26 06:46:19;;;;;;;5.28;1.60;;;;;;;;;;5069961;28;20056;-72
2022/09/26 06:48:45;;;;;;;4.63;1.85;;;;;;;;;;5067541;28;20039;-72
2022/09/26 06:51:13;;;;;;;3.65;1.58;;;;;;;;;;5057823;28;20037;-71
2022/09/26 06:53:39;;;;;;;3.60;1.65;;;;;;;;;;5050282;28;20067;-72
2022/09/26 06:56:05;;;;;;;9.32;2.33;;;;;;;;;;5051718;28;20029;-72
2022/09/26 06:58:31;;;;;;;6.13;2.17;;;;;;;;;;5058153;28;20556;-72
2022/09/26 07:01:00;;;;;;;4.32;1.88;;;;;;;;;;5070432;28;20051;-73
2022/09/26 07:03:27;;;;;;;5.25;2.00;;;;;;;;;;5055413;28;20029;-73
2022/09/26 07:05:55;;;;;;;5.05;1.50;;;;;;;;;;5051627;28;20079;-72
2022/09/26 07:08:21;;;;;;;4.00;1.85;;;;;;;;;;5050126;28;20025;-72
2022/09/26 07:10:47;;;;;;;4.22;2.15;;;;;;;;;;5051923;28;20056;-72
2022/09/26 07:13:15;;;;;;;5.13;1.70;;;;;;;;;;5065667;28;20060;-72
2022/09/26 07:15:44;;;;;;;5.85;1.90;;;;;;;;;;5062009;28;20039;-72
2022/09/26 07:18:11;;;;;;;5.53;2.15;;;;;;;;;;5070286;28;20472;-74
2022/09/26 07:20:39;;;;;;;8.48;3.35;;;;;;;;;;5052495;28;20717;-75
2022/09/26 07:23:07;;;;;;;11.30;3.38;;;;;;;;;;5057486;28;20045;-78
2022/09/26 07:25:36;;;;;;;7.90;3.13;;;;;;;;;;5054540;28;20028;-77
2022/09/26 07:28:03;;;;;;;5.43;2.75;;;;;;;;;;5053821;28;20032;-75
2022/09/26 07:30:29;;;;;;;7.03;2.78;;;;;;;;;;5055715;28;20479;-74
2022/09/26 07:33:02;;;;;;;8.48;3.40;;;;;;;;;;5056144;28;20055;-74
2022/09/26 07:35:32;;;;;;;8.38;3.17;;;;;;;;;;5054327;28;20025;-76
2022/09/26 07:37:58;;;;;;;8.55;3.50;;;;;;;;;;5056715;28;20107;-75
2022/09/26 07:40:25;;;;;;;6.95;2.90;;;;;;;;;;5055310;28;20504;-75
2022/09/26 07:42:52;;;;;;;7.15;3.78;;;;;;;;;;5054323;28;20029;-75
2022/09/26 07:50:10;;;;;;;6.05;2.28;;;;;;;;;;5056053;28;20055;-76
2022/09/26 07:50:56;;;;;;;6.43;2.42;;;;;;;;;;5052981;28;20047;-76
2022/09/26 07:53:23;;;;;;;11.27;2.95;;;;;;;;;;5056103;28;20082;-77
2022/09/26 07:56:05;;;;;;;9.25;4.18;;;;;;;;;;5053023;28;20035;-75
2022/09/26 07:58:36;;;;;;;9.48;3.53;;;;;;;;;;5054088;28;20039;-76
2022/09/26 08:01:02;;;;;;;7.70;4.03;;;;;;;;;;5054892;28;20029;-75
2022/09/26 08:03:28;;;;;;;10.60;3.65;;;;;;;;;;5054440;28;20028;-74
2022/09/26 08:05:56;;;;;;;7.18;2.45;;;;;;;;;;5056135;28;20108;-76
2022/09/26 08:08:22;;;;;;;8.38;2.88;;;;;;;;;;5060499;28;20048;-76
2022/09/26 08:10:48;;;;;;;8.63;3.65;;;;;;;;;;5056168;28;20035;-76
2022/09/26 08:13:14;;;;;;;9.27;3.03;;;;;;;;;;5053641;28;20028;-76
2022/09/26 08:15:40;;;;;;;11.13;3.33;;;;;;;;;;5055334;28;20032;-76
2022/09/26 08:18:06;;;;;;;7.80;2.70;;;;;;;;;;5055154;28;20044;-75
2022/09/26 08:20:32;;;;;;;8.88;2.65;;;;;;;;;;5055869;28;20399;-75
2022/09/26 08:22:59;;;;;;;9.25;2.95;;;;;;;;;;5052056;28;20063;-76
2022/09/26 08:25:25;;;;;;;7.10;2.65;;;;;;;;;;5053353;28;20029;-75
2022/09/26 08:27:51;;;;;;;8.65;2.78;;;;;;;;;;5050086;28;20497;-75
2022/09/26 08:30:26;;;;;;;9.55;3.72;;;;;;;;;;5052098;28;20037;-77
2022/09/26 08:32:53;;;;;;;8.60;3.35;;;;;;;;;;5053254;28;20032;-75
2022/09/26 08:35:19;;;;;;;7.10;2.15;;;;;;;;;;5053972;28;20028;-76
2022/09/26 08:37:46;;;;;;;7.75;2.45;;;;;;;;;;5056553;28;20093;-77
2022/09/26 08:40:12;;;;;;;10.50;3.10;;;;;;;;;;5052763;28;20032;-76
2022/09/26 08:42:39;;;;;;;7.88;3.60;;;;;;;;;;5050899;28;20467;-77
2022/09/26 08:46:23;;;;;;;10.73;3.08;;;;;;;;;;5056809;28;20039;-77
2022/09/26 08:47:55;;;;;;;10.32;2.90;;;;;;;;;;5054588;28;20036;-77
2022/09/26 08:50:31;;;;;;;9.93;2.83;;;;;;;;;;5049795;28;20425;-78
2022/09/26 08:53:04;;;;;;;7.57;3.17;;;;;;;;;;5054331;28;20101;-76
2022/09/26 08:55:36;;;;;;;8.02;2.47;;;;;;;;;;5054424;28;20160;-77
2022/09/26 08:58:11;;;;;;;8.05;3.33;;;;;;;;;;5053401;28;20116;-77
2022/09/26 09:00:38;;;;;;;5.43;2.85;;;;;;;;;;5050977;28;20021;-78
2022/09/26 09:03:10;;;;;;;6.57;2.83;;;;;;;;;;5055486;28;20383;-78
2022/09/26 09:05:42;;;;;;;9.40;3.08;;;;;;;;;;5055577;28;20036;-78
2022/09/26 09:08:27;;;;;;;9.40;2.65;;;;;;;;;;5050850;28;20025;-75
2022/09/26 09:10:56;;;;;;;6.95;2.58;;;;;;;;;;5053703;28;20085;-74
2022/09/26 09:13:31;;;;;;;8.15;3.20;;;;;;;;;;5057064;28;20071;-76
2022/09/26 09:16:15;;;;;;;6.50;2.97;;;;;;;;;;5052717;28;20123;-76
2022/09/26 09:18:56;;;;;;;7.95;3.15;;;;;;;;;;5054211;28;20086;-75
2022/09/26 09:21:25;;;;;;;9.93;3.83;;;;;;;;;;5052161;28;21380;-73
2022/09/26 09:24:12;;;;;;;9.57;2.97;;;;;;;;;;5051623;28;20033;-73
2022/09/26 09:26:49;;;;;;;8.45;4.00;;;;;;;;;;5048065;28;20032;-74
2022/09/26 09:29:41;;;;;;;10.32;4.30;;;;;;;;;;5053915;28;20583;-74
2022/09/26 09:32:11;;;;;;;10.95;3.40;;;;;;;;;;5054670;28;20040;-73
2022/09/26 09:34:39;;;;;;;14.90;4.65;;;;;;;;;;5049825;28;20042;-74
2022/09/26 09:37:11;;;;;;;14.15;4.97;;;;;;;;;;5056211;28;20898;-74
2022/09/26 09:39:38;;;;;;;12.32;4.25;;;;;;;;;;5052118;28;20106;-75
2022/09/26 09:42:17;;;;;;;7.03;3.38;;;;;;;;;;5051077;28;20072;-73
2022/09/26 09:44:43;;;;;;;7.63;3.03;;;;;;;;;;5052702;28;20032;-75
2022/09/26 09:47:16;;;;;;;8.02;3.92;;;;;;;;;;5054115;28;20033;-73
2022/09/26 09:49:43;;;;;;;9.77;3.40;;;;;;;;;;5050482;28;20029;-73
2022/09/26 09:52:13;;;;;;;8.05;2.90;;;;;;;;;;5056433;28;20055;-73
2022/09/26 09:54:48;;;;;;;8.50;3.60;;;;;;;;;;5055624;28;20036;-74
2022/09/26 09:57:30;;;;;;;7.35;1.95;;;;;;;;;;5055325;28;20040;-76
2022/09/26 10:00:07;;;;;;;3.72;0.95;;;;;;;;;;5056688;28;20032;-74
2022/09/26 10:02:49;;;;;;;13.30;3.47;;;;;;;;;;5052429;28;20090;-74
2022/09/26 10:05:19;;;;;;;10.38;2.60;;;;;;;;;;5055115;28;20057;-76
2022/09/26 10:07:47;;;;;;;9.80;3.13;;;;;;;;;;5059091;28;20056;-76
2022/09/26 10:10:18;;;;;;;7.25;3.10;;;;;;;;;;5056691;28;20033;-75
2022/09/26 10:12:45;;;;;;;6.35;2.53;;;;;;;;;;5051246;28;20495;-78
2022/09/26 10:15:26;;;;;;;6.80;3.08;;;;;;;;;;5050756;28;20031;-74
2022/09/26 10:18:02;;;;;;;8.88;3.00;;;;;;;;;;5063205;28;20027;-74
2022/09/26 10:20:42;;;;;;;10.48;2.85;;;;;;;;;;5070643;28;20029;-74
2022/09/26 10:23:16;;;;;;;9.40;3.40;;;;;;;;;;5070093;28;20041;-74
2022/09/26 10:25:46;;;;;;;6.03;2.53;;;;;;;;;;5069823;28;20031;-76
2022/09/26 10:28:23;;;;;;;8.50;3.35;;;;;;;;;;5071004;28;20131;-74
2022/09/26 10:30:49;;;;;;;7.25;3.13;;;;;;;;;;5072299;28;20056;-75
2022/09/26 10:33:32;;;;;;;10.88;2.53;;;;;;;;;;5072316;28;20031;-75
2022/09/26 10:36:11;;;;;;;8.55;2.83;;;;;;;;;;5051688;28;20025;-75
2022/09/26 10:40:43;;;;;;;7.32;2.80;;;;;;;;;;5070928;28;20036;-75
2022/09/26 10:41:38;;;;;;;7.55;2.28;;;;;;;;;;5072303;28;20477;-75
2022/09/26 10:44:06;;;;;;;9.90;4.53;;;;;;;;;;5064573;28;20111;-74
2022/09/26 10:46:32;;;;;;;12.98;4.57;;;;;;;;;;5054806;28;20120;-74
2022/09/26 10:49:01;;;;;;;8.02;2.88;;;;;;;;;;5071781;28;20156;-74
2022/09/26 10:51:40;;;;;;;8.73;3.63;;;;;;;;;;5072367;28;20037;-73
2022/09/26 10:54:09;;;;;;;7.43;3.33;;;;;;;;;;5071280;28;20029;-73
2022/09/26 10:56:48;;;;;;;9.75;4.57;;;;;;;;;;5071469;28;20037;-73
2022/09/26 10:59:15;;;;;;;10.50;3.78;;;;;;;;;;5063510;28;20029;-75
2022/09/26 11:01:46;;;;;;;9.23;4.63;;;;;;;;;;5050769;28;20025;-74
2022/09/26 11:04:12;;;;;;;9.48;4.28;;;;;;;;;;5050817;28;20078;-74
2022/09/26 11:06:43;;;;;;;8.18;2.83;;;;;;;;;;5052039;28;20048;-74
2022/09/26 11:09:10;;;;;;;11.02;4.45;;;;;;;;;;5053467;28;20028;-74
2022/09/26 11:11:38;;;;;;;10.18;3.00;;;;;;;;;;5064140;28;20858;-73
2022/09/26 11:14:07;;;;;;;9.88;4.30;;;;;;;;;;5064980;28;20058;-74
2022/09/26 11:16:40;;;;;;;12.88;5.25;;;;;;;;;;5058553;28;20021;-73
2022/09/26 11:19:09;;;;;;;6.47;2.88;;;;;;;;;;5063432;28;20032;-74
2022/09/26 11:21:41;;;;;;;8.27;3.63;;;;;;;;;;5061179;28;20048;-75
2022/09/26 11:24:26;;;;;;;11.35;4.80;;;;;;;;;;5060508;28;20044;-75
2022/09/26 11:27:04;;;;;;;10.38;4.43;;;;;;;;;;5051329;28;20025;-73
2022/09/26 11:29:37;;;;;;;9.57;4.35;;;;;;;;;;5056173;28;20024;-74
2022/09/26 11:32:04;;;;;;;6.65;3.13;;;;;;;;;;5056826;28;20036;-73
2022/09/26 11:34:30;;;;;;;8.63;4.80;;;;;;;;;;5054089;28;20029;-75
2022/09/26 11:37:05;;;;;;;7.63;2.50;;;;;;;;;;5052633;28;20136;-75
2022/09/26 11:39:37;;;;;;;6.97;3.50;;;;;;;;;;5049895;28;20093;-73
2022/09/26 11:42:23;;;;;;;7.18;3.88;;;;;;;;;;5051727;28;20033;-75
2022/09/26 11:45:00;;;;;;;5.53;3.05;;;;;;;;;;5064759;28;20025;-74
2022/09/26 11:47:49;;;;;;;5.55;2.75;;;;;;;;;;5052307;28;20036;-76
2022/09/26 11:50:22;;;;;;;10.60;3.88;;;;;;;;;;5053178;28;20116;-75
2022/09/26 11:53:18;;;;;;;7.15;2.70;;;;;;;;;;5058277;28;20580;-75
2022/09/26 11:56:03;;;;;;;5.10;2.88;;;;;;;;;;5050715;28;20077;-73
2022/09/26 11:58:45;;;;;;;8.95;3.75;;;;;;;;;;5054376;28;20033;-74
2022/09/26 12:01:26;;;;;;;10.90;3.95;;;;;;;;;;5051177;28;20024;-73
2022/09/26 12:04:11;;;;;;;8.45;4.13;;;;;;;;;;5055538;28;20032;-75
2022/09/26 12:06:43;;;;;;;8.43;4.30;;;;;;;;;;5056179;28;20048;-73
2022/09/26 12:09:17;;;;;;;5.47;3.00;;;;;;;;;;5052858;28;20029;-74
2022/09/26 12:11:51;;;;;;;7.97;4.65;;;;;;;;;;5052034;28;20118;-74
2022/09/26 12:14:26;;;;;;;4.15;2.10;;;;;;;;;;5049046;28;20021;-74
2022/09/26 12:17:01;;;;;;;5.68;3.30;;;;;;;;;;5053631;28;20407;-73
2022/09/26 12:19:46;;;;;;;5.10;2.85;;;;;;;;;;5052676;28;20043;-74
2022/09/26 12:22:27;;;;;;;6.68;3.83;;;;;;;;;;5054132;28;20059;-75
2022/09/26 12:24:53;;;;;;;6.45;3.75;;;;;;;;;;5051996;28;20025;-74
2022/09/26 12:27:37;;;;;;;6.72;3.70;;;;;;;;;;5050405;28;20033;-73
2022/09/26 12:30:06;;;;;;;7.05;3.33;;;;;;;;;;5054551;28;20578;-75
2022/09/26 12:32:38;;;;;;;9.25;3.33;;;;;;;;;;5051185;28;20119;-73
2022/09/26 12:35:10;;;;;;;9.93;3.85;;;;;;;;;;5048677;28;20094;-74
2022/09/26 12:37:47;;;;;;;5.60;3.25;;;;;;;;;;5048727;28;20021;-74
2022/09/26 12:40:35;;;;;;;6.43;4.00;;;;;;;;;;5053166;28;20372;-75
2022/09/26 12:43:04;;;;;;;9.93;4.10;;;;;;;;;;5049944;28;20033;-74
2022/09/26 12:45:49;;;;;;;5.68;2.85;;;;;;;;;;5052781;28;20064;-75
2022/09/26 12:48:20;;;;;;;5.63;2.22;;;;;;;;;;5052260;28;20415;-74
2022/09/26 12:50:58;;;;;;;6.70;3.22;;;;;;;;;;5051057;28;20060;-74
2022/09/26 12:53:36;;;;;;;6.60;3.72;;;;;;;;;;5053649;28;20032;-75
2022/09/26 12:56:11;;;;;;;5.55;2.22;;;;;;;;;;5052122;28;20044;-73
2022/09/26 12:58:49;;;;;;;7.20;1.98;;;;;;;;;;5052214;28;20107;-75
2022/09/26 13:01:22;;;;;;;6.57;3.25;;;;;;;;;;5053019;28;20037;-77
2022/09/26 13:03:54;;;;;;;7.28;2.45;;;;;;;;;;5054158;28;20025;-74
2022/09/26 13:06:46;;;;;;;6.43;2.55;;;;;;;;;;5053402;28;20036;-74
2022/09/26 13:09:24;;;;;;;5.97;2.55;;;;;;;;;;5049692;28;20048;-73
2022/09/26 13:11:51;;;;;;;6.03;2.22;;;;;;;;;;5051409;28;20134;-74
2022/09/26 13:14:30;;;;;;;5.63;2.72;;;;;;;;;;5054486;28;20036;-74
2022/09/26 13:17:10;;;;;;;3.92;1.33;;;;;;;;;;5052073;28;20123;-72
2022/09/26 13:19:36;;;;;;;4.07;2.08;;;;;;;;;;5052431;28;20032;-73
2022/09/26 13:22:24;;;;;;;5.10;2.38;;;;;;;;;;5050634;28;20167;-73
2022/09/26 13:25:16;;;;;;;3.33;2.10;;;;;;;;;;5052480;28;20116;-73
2022/09/26 13:27:45;;;;;;;4.97;2.17;;;;;;;;;;5054180;28;20036;-72
2022/09/26 13:30:22;;;;;;;3.10;2.07;;;;;;;;;;5050072;28;20033;-73
2022/09/26 13:33:00;;;;;;;5.45;2.40;;;;;;;;;;5052380;28;20286;-73
2022/09/26 13:35:28;;;;;;;3.08;2.20;;;;;;;;;;5054589;28;20032;-70
2022/09/26 13:38:13;;;;;;;5.28;2.60;;;;;;;;;;5060173;28;20025;-73
2022/09/26 13:40:39;;;;;;;3.75;1.63;;;;;;;;;;5057398;28;20025;-72
2022/09/26 13:43:08;;;;;;;3.05;2.05;;;;;;;;;;5055133;28;22997;-73
2022/09/26 13:45:54;;;;;;;3.83;2.10;;;;;;;;;;5057652;28;20059;-74
2022/09/26 13:48:39;;;;;;;4.97;2.30;;;;;;;;;;5056346;28;20039;-75
2022/09/26 13:51:17;;;;;;;4.15;1.88;;;;;;;;;;5056087;28;20085;-74
2022/09/26 13:53:52;;;;;;;5.70;2.13;;;;;;;;;;5057184;28;20371;-73
2022/09/26 13:56:33;;;;;;;3.67;1.35;;;;;;;;;;5052498;28;20340;-74
2022/09/26 13:59:03;;;;;;;5.38;2.78;;;;;;;;;;5059897;28;23096;-76
2022/09/26 14:01:30;;;;;;;3.55;2.28;;;;;;;;;;5058032;28;20040;-74
2022/09/26 14:04:15;;;;;;;3.63;1.85;;;;;;;;;;5051650;28;21060;-76
2022/09/26 14:07:01;;;;;;;6.30;2.65;;;;;;;;;;5055556;28;20039;-74
2022/09/26 14:09:39;;;;;;;3.90;1.35;;;;;;;;;;5052277;28;20036;-76
2022/09/26 14:12:19;;;;;;;3.58;1.83;;;;;;;;;;5055385;28;20050;-74
2022/09/26 14:14:50;;;;;;;6.50;2.88;;;;;;;;;;5057950;28;20025;-73
2022/09/26 14:17:35;;;;;;;4.97;2.72;;;;;;;;;;5054397;28;20021;-74
2022/09/26 14:20:02;;;;;;;4.03;2.47;;;;;;;;;;5057444;28;20031;-74
2022/09/26 14:22:33;;;;;;;3.78;2.00;;;;;;;;;;5054227;28;20581;-75
2022/09/26 14:25:01;;;;;;;4.32;2.75;;;;;;;;;;5053451;28;20476;-74
2022/09/26 14:27:36;;;;;;;3.53;2.45;;;;;;;;;;5055904;28;20031;-76
2022/09/26 14:30:21;;;;;;;3.92;2.13;;;;;;;;;;5058605;28;20028;-77
2022/09/26 14:32:47;;;;;;;3.40;2.00;;;;;;;;;;5056114;28;20144;-78
2022/09/26 14:35:27;;;;;;;3.92;1.48;;;;;;;;;;5056514;28;20078;-77
2022/09/26 14:37:53;;;;;;;;;;;;;;;;;;5057309;28;20029;-77
2022/09/26 14:40:27;;;;;;;3.08;1.40;;;;;;;;;;5055525;28;19944;-80
2022/09/26 14:42:59;;;;;;;4.05;1.65;;;;;;;;;;5054147;28;20021;-78
2022/09/26 14:45:25;;;;;;;2.97;1.50;;;;;;;;;;5055568;28;20039;-76
2022/09/26 14:47:59;;;;;;;4.97;2.63;;;;;;;;;;5055070;28;20428;-75
2022/09/26 14:50:34;;;;;;;2.58;1.65;;;;;;;;;;5054667;28;20640;-77
2022/09/26 14:53:12;;;;;;;3.78;2.00;;;;;;;;;;5055397;28;20044;-76
2022/09/26 14:55:52;;;;;;;2.78;1.70;;;;;;;;;;5052895;28;20075;-76
2022/09/26 14:58:29;;;;;;;2.55;1.35;;;;;;;;;;5055399;28;20187;-78
2022/09/26 15:00:55;;;;;;;2.35;1.60;;;;;;;;;;5055972;28;20059;-76
2022/09/26 15:03:22;;;;;;;24.13;14.73;;;;;;;;;;5053798;28;20104;-76
2022/09/26 15:05:48;;;;;;;4.72;2.25;;;;;;;;;;5053885;28;20037;-75
2022/09/26 15:08:23;;;;;;;3.53;1.90;;;;;;;;;;5054760;28;20025;-76
2022/09/26 15:10:50;;;;;;;5.25;2.42;;;;;;;;;;5053606;28;20101;-77
2022/09/26 15:13:16;;;;;;;3.70;2.13;;;;;;;;;;5052542;28;20033;-76